createdAt,value
2024-02-13T00:02:02.506Z,76.90
2024-02-13T00:04:35.892Z,76.95
2024-02-13T00:07:08.569Z,76.86
2024-02-13T00:09:41.082Z,76.96
2024-02-13T00:12:14.118Z,76.93
2024-02-13T00:14:48.046Z,77.01
2024-02-13T00:17:19.946Z,77.17
2024-02-13T00:19:53.950Z,77.63
2024-02-13T00:22:26.426Z,76.99
2024-02-13T00:24:58.884Z,76.84
2024-02-13T00:27:34.838Z,76.78
2024-02-13T00:30:09.924Z,76.85
2024-02-13T00:32:55.633Z,76.62
2024-02-13T00:35:35.854Z,76.70
2024-02-13T00:38:08.252Z,76.71
2024-02-13T00:40:40.737Z,76.68
2024-02-13T00:43:14.599Z,76.64
2024-02-13T00:45:46.269Z,76.59
2024-02-13T00:48:21.181Z,76.87
2024-02-13T00:50:54.196Z,76.07
2024-02-13T00:53:26.350Z,76.24
2024-02-13T00:56:00.354Z,76.23
2024-02-13T00:58:32.707Z,76.06
2024-02-13T01:01:08.855Z,76.08
2024-02-13T01:03:42.179Z,76.00
2024-02-13T01:06:15.103Z,75.96
2024-02-13T01:08:47.986Z,76.05
2024-02-13T01:11:20.680Z,75.95
2024-02-13T01:13:53.104Z,75.62
2024-02-13T01:16:25.753Z,75.65
2024-02-13T01:18:59.505Z,75.63
2024-02-13T01:21:32.283Z,75.42
2024-02-13T01:24:04.630Z,75.22
2024-02-13T01:26:37.194Z,75.33
2024-02-13T01:29:10.264Z,75.22
2024-02-13T01:31:43.150Z,74.89
2024-02-13T01:34:15.453Z,75.06
2024-02-13T01:36:47.886Z,75.12
2024-02-13T01:39:20.362Z,75.25
2024-02-13T01:41:55.353Z,75.26
2024-02-13T01:44:29.396Z,75.29
2024-02-13T01:47:01.695Z,75.24
2024-02-13T01:49:34.804Z,75.13
2024-02-13T01:52:08.271Z,75.06
2024-02-13T01:54:40.676Z,74.81
2024-02-13T01:57:14.230Z,74.98
2024-02-13T01:59:46.929Z,75.05
2024-02-13T02:02:20.023Z,75.08
2024-02-13T02:04:54.565Z,75.08
2024-02-13T02:07:28.417Z,74.98
2024-02-13T02:10:01.360Z,75.13
2024-02-13T02:12:38.030Z,75.00
2024-02-13T02:15:14.791Z,74.95
2024-02-13T02:17:55.415Z,74.63
2024-02-13T02:20:28.255Z,74.63
2024-02-13T02:23:00.675Z,74.63
2024-02-13T02:25:34.712Z,74.62
2024-02-13T02:28:26.276Z,74.57
2024-02-13T02:31:09.055Z,74.66
2024-02-13T02:33:43.441Z,74.74
2024-02-13T02:36:15.997Z,74.70
2024-02-13T02:38:48.552Z,74.57
2024-02-13T02:41:23.189Z,74.70
2024-02-13T02:43:55.541Z,74.80
2024-02-13T02:46:27.678Z,74.64
2024-02-13T02:49:00.882Z,74.69
2024-02-13T02:51:33.304Z,74.57
2024-02-13T02:54:07.160Z,74.66
2024-02-13T02:56:40.505Z,74.73
2024-02-13T02:59:14.201Z,74.61
2024-02-13T03:01:48.249Z,74.66
2024-02-13T03:04:23.532Z,73.99
2024-02-13T03:06:56.547Z,74.05
2024-02-13T03:09:29.222Z,73.98
2024-02-13T03:12:01.850Z,73.94
2024-02-13T03:14:34.256Z,74.05
2024-02-13T03:17:08.114Z,74.08
2024-02-13T03:19:42.383Z,73.90
2024-02-13T03:22:14.855Z,73.87
2024-02-13T03:24:47.989Z,73.93
2024-02-13T03:27:20.373Z,74.14
2024-02-13T03:29:54.604Z,74.13
2024-02-13T03:32:27.605Z,73.91
2024-02-13T03:35:00.228Z,74.12
2024-02-13T03:37:35.374Z,74.06
2024-02-13T03:40:10.062Z,74.01
2024-02-13T03:42:43.736Z,73.89
2024-02-13T03:45:16.186Z,73.81
2024-02-13T03:47:59.911Z,73.86
2024-02-13T03:50:32.357Z,73.85
2024-02-13T03:53:05.993Z,73.94
2024-02-13T03:55:39.074Z,73.81
2024-02-13T03:58:13.829Z,73.23
2024-02-13T04:00:47.419Z,73.26
2024-02-13T04:03:20.838Z,73.08
2024-02-13T04:05:53.652Z,73.29
2024-02-13T04:08:28.090Z,73.04
2024-02-13T04:11:00.622Z,73.17
2024-02-13T04:13:33.119Z,73.37
2024-02-13T04:16:07.723Z,73.00
2024-02-13T04:18:41.517Z,73.33
2024-02-13T04:21:19.494Z,73.23
2024-02-13T04:23:52.319Z,73.65
2024-02-13T04:26:35.813Z,73.19
2024-02-13T04:29:00.161Z,73.11
2024-02-13T04:31:34.222Z,73.31
2024-02-13T04:34:10.725Z,73.58
2024-02-13T04:36:44.417Z,73.48
2024-02-13T04:39:18.457Z,73.42
2024-02-13T04:41:52.593Z,73.44
2024-02-13T04:44:25.434Z,73.40
2024-02-13T04:46:58.062Z,73.50
2024-02-13T04:49:30.681Z,73.15
2024-02-13T04:52:05.482Z,73.26
2024-02-13T04:54:37.825Z,73.29
2024-02-13T04:57:11.460Z,73.47
2024-02-13T04:59:46.027Z,73.11
2024-02-13T05:02:22.924Z,73.11
2024-02-13T05:05:13.268Z,73.31
2024-02-13T05:07:46.150Z,73.30
2024-02-13T05:10:18.815Z,73.30
2024-02-13T05:13:03.233Z,73.44
2024-02-13T05:15:38.095Z,73.48
2024-02-13T05:18:11.488Z,73.03
2024-02-13T05:20:45.244Z,73.15
2024-02-13T05:23:18.655Z,73.21
2024-02-13T05:25:51.603Z,73.41
2024-02-13T05:28:25.021Z,73.25
2024-02-13T05:30:59.265Z,73.34
2024-02-13T05:33:32.650Z,73.38
2024-02-13T05:36:06.994Z,73.61
2024-02-13T05:38:45.766Z,73.63
2024-02-13T05:41:18.800Z,73.90
2024-02-13T05:43:53.535Z,73.99
2024-02-13T05:46:27.543Z,74.00
2024-02-13T05:49:03.262Z,74.13
2024-02-13T05:51:36.155Z,74.03
2024-02-13T05:54:11.505Z,73.98
2024-02-13T05:56:45.156Z,73.45
2024-02-13T05:59:19.897Z,73.68
2024-02-13T06:01:54.277Z,73.64
2024-02-13T06:04:29.020Z,73.69
2024-02-13T06:07:04.507Z,73.54
2024-02-13T06:09:39.830Z,73.48
2024-02-13T06:12:14.231Z,73.55
2024-02-13T06:14:49.486Z,73.22
2024-02-13T06:17:25.232Z,73.31
2024-02-13T06:20:00.668Z,73.17
2024-02-13T06:22:38.637Z,73.01
2024-02-13T06:25:13.684Z,73.30
2024-02-13T06:27:47.784Z,73.16
2024-02-13T06:30:22.030Z,72.76
2024-02-13T06:33:02.608Z,72.89
2024-02-13T06:35:37.086Z,72.51
2024-02-13T06:38:18.127Z,72.78
2024-02-13T06:40:51.073Z,72.55
2024-02-13T06:43:25.554Z,72.92
2024-02-13T06:45:58.988Z,72.66
2024-02-13T06:48:34.446Z,72.88
2024-02-13T06:51:09.699Z,72.57
2024-02-13T06:53:44.469Z,72.46
2024-02-13T06:56:17.780Z,72.43
2024-02-13T06:58:51.770Z,72.26
2024-02-13T07:01:26.305Z,72.17
2024-02-13T07:03:59.586Z,72.51
2024-02-13T07:06:43.564Z,72.62
2024-02-13T07:09:08.620Z,72.48
2024-02-13T07:11:42.079Z,72.22
2024-02-13T07:14:23.274Z,71.69
2024-02-13T07:16:55.046Z,71.47
2024-02-13T07:19:28.555Z,71.66
2024-02-13T07:22:01.552Z,71.43
2024-02-13T07:24:35.414Z,71.41
2024-02-13T07:27:10.067Z,71.86
2024-02-13T07:29:44.449Z,72.07
2024-02-13T07:32:19.227Z,71.96
2024-02-13T07:34:53.579Z,71.77
2024-02-13T07:37:25.884Z,71.60
2024-02-13T07:39:59.114Z,71.38
2024-02-13T07:42:32.790Z,71.08
2024-02-13T07:45:07.166Z,71.13
2024-02-13T07:47:55.462Z,70.82
2024-02-13T07:50:30.082Z,71.10
2024-02-13T07:53:02.582Z,71.33
2024-02-13T07:55:38.194Z,70.80
2024-02-13T07:58:12.512Z,70.35
2024-02-13T08:00:45.823Z,70.18
2024-02-13T08:03:18.995Z,69.77
2024-02-13T08:05:52.475Z,69.56
2024-02-13T08:08:25.935Z,69.77
2024-02-13T08:11:00.504Z,69.82
2024-02-13T08:13:34.448Z,69.30
2024-02-13T08:16:08.231Z,67.91
2024-02-13T08:18:45.020Z,67.28
2024-02-13T08:21:18.241Z,66.35
2024-02-13T08:23:52.071Z,66.15
2024-02-13T08:26:26.336Z,66.01
2024-02-13T08:29:02.178Z,66.04
2024-02-13T08:31:35.850Z,66.05
2024-02-13T08:34:09.673Z,66.24
2024-02-13T08:36:42.998Z,66.26
2024-02-13T08:39:16.090Z,67.15
2024-02-13T08:41:49.932Z,67.22
2024-02-13T08:44:23.008Z,67.42
2024-02-13T08:46:56.521Z,67.78
2024-02-13T08:49:30.496Z,67.02
2024-02-13T08:52:02.893Z,66.92
2024-02-13T08:54:37.143Z,66.62
2024-02-13T08:57:10.152Z,66.60
2024-02-13T08:59:48.954Z,66.27
2024-02-13T09:02:34.887Z,66.95
2024-02-13T09:05:17.474Z,65.51
2024-02-13T09:07:51.492Z,65.64
2024-02-13T09:10:24.445Z,65.75
2024-02-13T09:12:58.740Z,65.72
2024-02-13T09:15:32.416Z,64.63
2024-02-13T09:18:05.368Z,64.28
2024-02-13T09:20:40.547Z,63.98
2024-02-13T09:23:14.394Z,63.88
2024-02-13T09:25:53.068Z,63.78
2024-02-13T09:28:45.879Z,63.87
2024-02-13T09:31:22.857Z,64.05
2024-02-13T09:33:57.346Z,64.20
2024-02-13T09:36:34.573Z,63.82
2024-02-13T09:39:10.664Z,63.66
2024-02-13T09:41:45.164Z,63.27
2024-02-13T09:44:18.860Z,63.18
2024-02-13T09:46:56.154Z,63.21
2024-02-13T09:49:30.980Z,63.65
2024-02-13T09:52:06.669Z,62.83
2024-02-13T09:54:42.898Z,63.48
2024-02-13T09:57:17.109Z,64.08
2024-02-13T09:59:50.167Z,64.03
2024-02-13T10:02:26.123Z,63.51
2024-02-13T10:04:59.059Z,63.08
2024-02-13T10:07:35.300Z,63.05
2024-02-13T10:10:12.866Z,64.24
2024-02-13T10:13:01.556Z,63.71
2024-02-13T10:15:47.288Z,63.90
2024-02-13T10:18:20.118Z,63.28
2024-02-13T10:20:55.704Z,63.26
2024-02-13T10:23:29.932Z,62.78
2024-02-13T10:26:04.087Z,63.04
2024-02-13T10:28:36.665Z,64.11
2024-02-13T10:31:10.326Z,63.43
2024-02-13T10:33:44.447Z,63.06
2024-02-13T10:36:17.981Z,62.96
2024-02-13T10:38:53.007Z,63.17
2024-02-13T10:41:30.277Z,63.84
2024-02-13T10:44:05.242Z,64.55
2024-02-13T10:46:42.006Z,64.08
2024-02-13T10:49:26.959Z,63.70
2024-02-13T10:52:01.477Z,64.18
2024-02-13T10:54:36.567Z,63.54
2024-02-13T10:57:10.301Z,63.51
2024-02-13T10:59:48.625Z,63.12
2024-02-13T11:02:22.104Z,63.24
2024-02-13T11:04:56.730Z,63.13
2024-02-13T11:07:30.293Z,62.90
2024-02-13T11:10:06.025Z,63.18
2024-02-13T11:12:39.869Z,63.18
2024-02-13T11:15:19.660Z,63.52
2024-02-13T11:18:07.541Z,63.50
2024-02-13T11:20:44.928Z,62.92
2024-02-13T11:23:26.547Z,63.06
2024-02-13T11:26:04.555Z,62.99
2024-02-13T11:28:42.777Z,62.95
2024-02-13T11:31:17.353Z,63.28
2024-02-13T11:34:10.564Z,63.69
2024-02-13T11:36:57.082Z,63.21
2024-02-13T11:39:30.352Z,62.89
2024-02-13T11:42:03.167Z,62.00
2024-02-13T11:44:41.541Z,61.99
2024-02-13T11:47:14.751Z,61.61
2024-02-13T11:49:53.450Z,61.97
2024-02-13T11:52:27.977Z,61.10
2024-02-13T11:55:05.012Z,60.84
2024-02-13T11:57:42.586Z,60.98
2024-02-13T12:00:17.770Z,61.17
2024-02-13T12:03:23.831Z,60.94
2024-02-13T12:05:58.054Z,60.68
2024-02-13T12:08:31.778Z,61.08
2024-02-13T12:11:06.186Z,61.89
2024-02-13T12:13:40.495Z,61.83
2024-02-13T12:16:15.329Z,61.54
2024-02-13T12:18:51.280Z,62.02
2024-02-13T12:21:24.194Z,61.84
2024-02-13T12:23:59.028Z,61.97
2024-02-13T12:26:33.186Z,62.28
2024-02-13T12:29:13.273Z,62.71
2024-02-13T12:31:49.571Z,61.91
2024-02-13T12:34:28.006Z,62.66
2024-02-13T12:37:05.305Z,63.08
2024-02-13T12:39:42.177Z,62.71
2024-02-13T12:42:17.423Z,62.80
2024-02-13T12:44:51.470Z,62.08
2024-02-13T12:47:27.123Z,61.40
2024-02-13T12:50:00.634Z,62.12
2024-02-13T12:52:37.833Z,61.90
2024-02-13T12:55:13.075Z,61.91
2024-02-13T12:57:47.862Z,62.49
2024-02-13T13:00:23.284Z,62.88
2024-02-13T13:02:57.407Z,63.46
2024-02-13T13:05:29.683Z,63.96
2024-02-13T13:08:03.443Z,64.09
2024-02-13T13:10:37.081Z,63.48
2024-02-13T13:13:13.576Z,63.98
2024-02-13T13:15:47.830Z,64.23
2024-02-13T13:18:40.271Z,64.41
2024-02-13T13:21:14.362Z,64.72
2024-02-13T13:23:48.565Z,64.96
2024-02-13T13:26:21.452Z,65.13
2024-02-13T13:28:54.570Z,65.52
2024-02-13T13:31:27.832Z,65.71
2024-02-13T13:34:03.992Z,65.97
2024-02-13T13:36:39.041Z,65.81
2024-02-13T13:39:12.835Z,66.01
2024-02-13T13:41:46.554Z,66.23
2024-02-13T13:44:20.734Z,66.10
2024-02-13T13:46:55.462Z,66.20
2024-02-13T13:49:29.312Z,66.48
2024-02-13T13:52:03.220Z,66.83
2024-02-13T13:54:35.829Z,66.98
2024-02-13T13:57:09.088Z,67.09
2024-02-13T13:59:41.604Z,67.09
2024-02-13T14:02:14.898Z,67.36
2024-02-13T14:04:48.315Z,67.60
2024-02-13T14:07:22.409Z,67.71
2024-02-13T14:09:56.553Z,67.54
2024-02-13T14:12:30.865Z,67.84
2024-02-13T14:15:03.520Z,67.89
2024-02-13T14:17:37.963Z,67.96
2024-02-13T14:20:13.266Z,67.89
2024-02-13T14:22:47.279Z,67.92
2024-02-13T14:25:22.556Z,68.27
2024-02-13T14:27:57.756Z,68.56
2024-02-13T14:30:32.306Z,68.82
2024-02-13T14:33:23.140Z,69.06
2024-02-13T14:35:56.368Z,69.12
2024-02-13T14:38:32.487Z,69.52
2024-02-13T14:41:05.440Z,69.73
2024-02-13T14:43:39.016Z,69.77
2024-02-13T14:46:11.754Z,69.81
2024-02-13T14:48:48.233Z,69.70
2024-02-13T14:51:20.795Z,69.98
2024-02-13T14:53:54.234Z,70.08
2024-02-13T14:56:31.617Z,70.04
2024-02-13T14:59:06.337Z,70.24
2024-02-13T15:01:41.312Z,70.38
2024-02-13T15:04:31.680Z,70.66
2024-02-13T15:07:06.500Z,70.56
2024-02-13T15:09:41.240Z,70.66
2024-02-13T15:12:14.148Z,70.69
2024-02-13T15:14:47.872Z,70.89
2024-02-13T15:17:22.013Z,71.15
2024-02-13T15:19:56.990Z,71.05
2024-02-13T15:22:32.537Z,71.14
2024-02-13T15:25:09.308Z,71.20
2024-02-13T15:27:44.173Z,71.40
2024-02-13T15:30:19.697Z,71.29
2024-02-13T15:33:05.299Z,71.35
2024-02-13T15:35:43.867Z,71.24
2024-02-13T15:38:34.987Z,71.20
2024-02-13T15:41:26.092Z,71.29
2024-02-13T15:44:16.831Z,71.29
2024-02-13T15:47:09.118Z,71.21
2024-02-13T15:49:45.240Z,71.08
2024-02-13T15:52:18.683Z,71.19
2024-02-13T15:54:52.142Z,71.35
2024-02-13T15:57:45.992Z,71.47
2024-02-13T16:00:21.150Z,71.71
2024-02-13T16:02:54.831Z,71.87
2024-02-13T16:05:30.348Z,71.59
2024-02-13T16:08:04.537Z,71.75
2024-02-13T16:10:38.154Z,71.86
2024-02-13T16:13:13.088Z,71.89
2024-02-13T16:15:47.179Z,71.78
2024-02-13T16:18:24.427Z,71.79
2024-02-13T16:20:58.122Z,71.99
2024-02-13T16:23:31.632Z,72.09
2024-02-13T16:26:05.637Z,72.27
2024-02-13T16:28:39.045Z,72.61
2024-02-13T16:31:12.649Z,72.51
2024-02-13T16:33:49.676Z,72.44
2024-02-13T16:36:25.320Z,72.65
2024-02-13T16:38:59.094Z,72.61
2024-02-13T16:41:50.703Z,72.58
2024-02-13T16:44:24.825Z,72.54
2024-02-13T16:46:59.943Z,72.58
2024-02-13T16:49:34.917Z,72.94
2024-02-13T16:52:08.422Z,72.95
2024-02-13T16:54:42.430Z,72.86
2024-02-13T16:57:16.267Z,72.85
2024-02-13T16:59:49.633Z,72.92
2024-02-13T17:02:24.119Z,72.88
2024-02-13T17:04:59.320Z,72.79
2024-02-13T17:07:36.606Z,72.96
2024-02-13T17:10:13.532Z,72.92
2024-02-13T17:12:46.389Z,73.09
2024-02-13T17:15:18.946Z,72.95
2024-02-13T17:17:51.985Z,73.20
2024-02-13T17:20:24.841Z,73.25
2024-02-13T17:22:57.896Z,73.03
2024-02-13T17:25:30.964Z,73.30
2024-02-13T17:28:05.742Z,73.34
2024-02-13T17:30:39.874Z,73.32
2024-02-13T17:33:14.269Z,72.93
2024-02-13T17:36:05.303Z,72.71
2024-02-13T17:38:38.839Z,72.87
2024-02-13T17:41:14.680Z,73.00
2024-02-13T17:43:48.895Z,73.08
2024-02-13T17:46:22.409Z,73.20
2024-02-13T17:48:55.207Z,73.05
2024-02-13T17:51:28.305Z,73.17
2024-02-13T17:54:02.823Z,73.25
2024-02-13T17:56:35.633Z,73.14
2024-02-13T17:59:08.625Z,72.77
2024-02-13T18:01:53.157Z,72.22
2024-02-13T18:04:26.806Z,72.41
2024-02-13T18:06:59.772Z,72.43
2024-02-13T18:09:32.565Z,72.48
2024-02-13T18:12:07.117Z,72.77
2024-02-13T18:14:40.173Z,73.08
2024-02-13T18:17:15.591Z,73.18
2024-02-13T18:19:48.456Z,72.81
2024-02-13T18:22:21.530Z,72.90
2024-02-13T18:24:54.782Z,72.71
2024-02-13T18:27:27.841Z,72.14
2024-02-13T18:30:00.582Z,72.50
2024-02-13T18:32:35.260Z,72.55
2024-02-13T18:35:08.044Z,72.70
2024-02-13T18:37:42.229Z,72.88
2024-02-13T18:40:16.433Z,72.76
2024-02-13T18:42:49.295Z,72.55
2024-02-13T18:45:22.361Z,72.42
2024-02-13T18:48:14.484Z,72.63
2024-02-13T18:50:47.572Z,72.77
2024-02-13T18:53:22.947Z,72.72
2024-02-13T18:55:55.589Z,72.54
2024-02-13T18:58:30.203Z,72.50
2024-02-13T19:01:02.619Z,72.55
2024-02-13T19:03:35.211Z,72.44
2024-02-13T19:06:09.132Z,72.61
2024-02-13T19:08:41.831Z,72.78
2024-02-13T19:11:15.177Z,72.93
2024-02-13T19:13:47.538Z,72.94
2024-02-13T19:16:21.874Z,72.68
2024-02-13T19:18:54.757Z,72.76
2024-02-13T19:21:27.709Z,72.75
2024-02-13T19:24:00.498Z,72.66
2024-02-13T19:26:35.764Z,72.68
2024-02-13T19:29:09.464Z,72.74
2024-02-13T19:31:43.085Z,72.63
2024-02-13T19:34:17.620Z,72.97
2024-02-13T19:36:50.048Z,72.64
2024-02-13T19:39:23.961Z,72.59
2024-02-13T19:41:57.683Z,72.56
2024-02-13T19:44:29.614Z,72.59
2024-02-13T19:47:02.140Z,72.94
2024-02-13T19:49:37.326Z,72.60
2024-02-13T19:52:22.210Z,72.46
2024-02-13T19:54:56.715Z,72.64
2024-02-13T19:57:31.062Z,72.71
2024-02-13T20:00:05.707Z,72.68
2024-02-13T20:02:43.932Z,72.76
2024-02-13T20:05:18.844Z,72.81
2024-02-13T20:07:52.848Z,72.87
2024-02-13T20:10:26.026Z,72.94
2024-02-13T20:12:58.293Z,72.96
2024-02-13T20:15:31.233Z,73.08
2024-02-13T20:18:04.824Z,73.12
2024-02-13T20:20:37.592Z,73.14
2024-02-13T20:23:11.395Z,73.19
2024-02-13T20:25:43.936Z,73.21
2024-02-13T20:28:16.252Z,73.23
2024-02-13T20:30:49.077Z,73.28
2024-02-13T20:33:39.210Z,73.22
2024-02-13T20:39:12.572Z,73.27
2024-02-13T20:41:45.487Z,73.26
2024-02-13T20:44:17.657Z,73.31
2024-02-13T20:46:49.991Z,73.32
2024-02-13T20:49:26.079Z,73.39
2024-02-13T20:51:59.255Z,73.38
2024-02-13T20:54:33.768Z,73.41
2024-02-13T20:57:06.799Z,73.41
2024-02-13T20:59:39.630Z,73.36
2024-02-13T21:02:12.217Z,73.41
2024-02-13T21:04:45.990Z,73.48
2024-02-13T21:07:18.519Z,73.52
2024-02-13T21:09:51.016Z,73.52
2024-02-13T21:12:23.593Z,73.45
2024-02-13T21:14:57.886Z,73.54
2024-02-13T21:17:32.057Z,73.56
2024-02-13T21:20:05.759Z,73.64
2024-02-13T21:22:54.761Z,73.55
2024-02-13T21:25:27.162Z,73.68
2024-02-13T21:28:00.372Z,73.37
2024-02-13T21:30:33.268Z,73.31
2024-02-13T21:33:08.798Z,73.37
2024-02-13T21:35:41.361Z,73.45
2024-02-13T21:38:14.875Z,73.48
2024-02-13T21:40:47.699Z,73.56
2024-02-13T21:43:20.086Z,73.58
2024-02-13T21:45:53.344Z,73.49
2024-02-13T21:48:25.834Z,73.61
2024-02-13T21:50:58.763Z,73.51
2024-02-13T21:53:31.299Z,73.46
2024-02-13T21:56:03.698Z,73.44
2024-02-13T21:58:37.555Z,73.54
2024-02-13T22:01:10.546Z,73.56
2024-02-13T22:03:46.009Z,73.44
2024-02-13T22:06:19.763Z,73.27
2024-02-13T22:08:52.177Z,73.22
2024-02-13T22:11:25.386Z,73.32
2024-02-13T22:13:58.033Z,73.26
2024-02-13T22:16:31.870Z,72.98
2024-02-13T22:19:04.754Z,73.15
2024-02-13T22:21:37.267Z,73.16
2024-02-13T22:24:10.450Z,73.22
2024-02-13T22:26:43.172Z,73.08
2024-02-13T22:29:15.468Z,72.67
2024-02-13T22:31:48.823Z,72.78
2024-02-13T22:34:23.691Z,72.77
2024-02-13T22:36:56.402Z,72.91
2024-02-13T22:39:28.655Z,72.93
2024-02-13T22:42:03.930Z,72.87
2024-02-13T22:44:37.139Z,72.97
2024-02-13T22:47:10.135Z,73.00
2024-02-13T22:49:43.041Z,73.14
2024-02-13T22:52:16.212Z,73.21
2024-02-13T22:54:48.591Z,73.27
2024-02-13T22:57:20.984Z,73.27
2024-02-13T22:59:53.315Z,73.19
2024-02-13T23:02:25.742Z,73.24
2024-02-13T23:04:58.076Z,73.16
2024-02-13T23:07:31.073Z,73.23
2024-02-13T23:10:05.130Z,73.26
2024-02-13T23:12:39.146Z,73.26
2024-02-13T23:15:12.602Z,73.21
2024-02-13T23:17:51.179Z,73.22
2024-02-13T23:20:24.001Z,73.26
2024-02-13T23:22:58.247Z,73.15
2024-02-13T23:25:30.491Z,73.04
2024-02-13T23:28:02.795Z,73.05
2024-02-13T23:30:36.176Z,72.88
2024-02-13T23:33:08.781Z,72.93
2024-02-13T23:35:41.386Z,73.06
2024-02-13T23:38:14.550Z,72.66
2024-02-13T23:40:46.792Z,72.72
2024-02-13T23:43:19.606Z,72.80
2024-02-13T23:45:52.463Z,72.85
2024-02-13T23:48:25.690Z,72.96
2024-02-13T23:50:57.937Z,72.89
2024-02-13T23:53:30.057Z,72.90
2024-02-13T23:56:02.507Z,72.95
2024-02-13T23:58:34.824Z,73.00
